Charles M. Schulz Sonoma County Airport


Codes: KSTS/STS
Name: Charles M. Schulz Sonoma County Airport
City: Santa Rosa
Country: United States
Elevation: 128 ft.
Website:
Wikipedia:

Photos at Charles M. Schulz Sonoma County Airport


   Photos courtesy of SpottingLog. You can add your own sightings and photos by signing up for a free trial today.



No photos found.

Weather at Charles M. Schulz Sonoma County Airport


Time (UTC)DescriptionTempratureWindCloud coverageVisibilityPressureHumidity
19-Apr-2024 06:00Overcast Clouds14°C2 mph, SW100%10000m1013hPa79%
19-Apr-2024 09:00Overcast Clouds12°C0 mph, W93%10000m1013hPa86%
19-Apr-2024 12:00Broken Clouds10°C2 mph, SW73%10000m1014hPa93%
19-Apr-2024 15:00Broken Clouds13°C0 mph, W54%10000m1014hPa83%
19-Apr-2024 18:00Scattered Clouds21°C2 mph, W31%10000m1014hPa59%
19-Apr-2024 21:00Clear Sky23°C7 mph, SW0%10000m1013hPa54%
20-Apr-2024 00:00Clear Sky21°C7 mph, SW0%10000m1013hPa56%
20-Apr-2024 03:00Clear Sky13°C4 mph, S0%10000m1013hPa86%
20-Apr-2024 06:00Few Clouds11°C0 mph, S20%10000m1014hPa90%
20-Apr-2024 09:00Broken Clouds10°C2 mph, SW79%10000m1015hPa86%
20-Apr-2024 12:00Broken Clouds10°C2 mph, W76%10000m1016hPa80%
20-Apr-2024 15:00Few Clouds12°C2 mph, W19%10000m1017hPa66%
20-Apr-2024 18:00Clear Sky21°C2 mph, W10%10000m1018hPa35%
20-Apr-2024 21:00Clear Sky25°C4 mph, SW3%10000m1017hPa26%
21-Apr-2024 00:00Few Clouds24°C7 mph, W17%10000m1017hPa32%
21-Apr-2024 03:00Broken Clouds16°C4 mph, NW56%10000m1018hPa55%
21-Apr-2024 06:00Broken Clouds11°C4 mph, NW73%10000m1019hPa72%
21-Apr-2024 09:00Clear Sky10°C2 mph, NW4%10000m1019hPa89%
21-Apr-2024 12:00Clear Sky9°C2 mph, NW2%10000m1018hPa91%
21-Apr-2024 15:00Clear Sky12°C2 mph, N9%10000m1018hPa72%
21-Apr-2024 18:00Clear Sky22°C2 mph, SW8%10000m1018hPa48%
21-Apr-2024 21:00Few Clouds25°C4 mph, SW12%10000m1015hPa41%
22-Apr-2024 00:00Scattered Clouds23°C7 mph, SW28%10000m1013hPa53%
22-Apr-2024 03:00Broken Clouds16°C2 mph, S59%10000m1013hPa76%
22-Apr-2024 06:00Broken Clouds14°C2 mph, N51%10000m1013hPa83%
22-Apr-2024 09:00Broken Clouds14°C2 mph, N71%10000m1011hPa87%
22-Apr-2024 12:00Broken Clouds13°C2 mph, N74%10000m1010hPa89%
22-Apr-2024 15:00Broken Clouds16°C2 mph, NE84%10000m1010hPa73%
22-Apr-2024 18:00Scattered Clouds25°C2 mph, S48%10000m1009hPa42%
22-Apr-2024 21:00Clear Sky26°C9 mph, SW3%10000m1008hPa39%
23-Apr-2024 00:00Clear Sky22°C7 mph, SW4%10000m1008hPa50%
23-Apr-2024 03:00Clear Sky13°C4 mph, S2%10000m1009hPa79%
23-Apr-2024 06:00Broken Clouds11°C2 mph, SW52%10000m1010hPa91%
23-Apr-2024 09:00Broken Clouds10°C2 mph, SW71%10000m1011hPa97%
23-Apr-2024 12:00Broken Clouds11°C4 mph, S80%10000m1011hPa89%
23-Apr-2024 15:00Overcast Clouds12°C4 mph, S100%10000m1013hPa86%
23-Apr-2024 18:00Overcast Clouds14°C4 mph, SW100%10000m1013hPa71%
23-Apr-2024 21:00Overcast Clouds18°C9 mph, SW100%10000m1013hPa56%
24-Apr-2024 00:00Overcast Clouds16°C9 mph, SW92%10000m1013hPa61%
24-Apr-2024 03:00Overcast Clouds10°C2 mph, SW100%10000m1014hPa85%